Terminal Aerodrome Forecast
Issued by NWS Atlanta, GA

Home | Current Version | Previous Version | Text Only | Print | Product List | Glossary On
Versions: 1 2 3 4 5 6 7 8 9 10 11 12 13 14
750
FTUS42 KFFC 220538
TAFCSG
TAF
KCSG 220538Z 2206/2306 00000KT P6SM FEW250
     FM221500 18003KT P6SM SCT040
     FM221800 21004KT P6SM BKN050 PROB30 2220/2224 TSRA BKN040CB
     FM230100 00000KT P6SM SCT150=

USA.gov is the U.S. government's official web portal to all federal, state and local government web resources and services.